createdAt,value
2019-02-15T00:04:08.753Z,99.60
2019-02-15T00:09:15.939Z,99.60
2019-02-15T00:14:23.469Z,99.60
2019-02-15T00:19:53.806Z,99.60
2019-02-15T00:25:01.166Z,99.60
2019-02-15T00:30:10.515Z,99.60
2019-02-15T00:35:16.764Z,99.60
2019-02-15T00:40:23.230Z,99.60
2019-02-15T00:45:31.802Z,99.60
2019-02-15T00:50:59.936Z,99.60
2019-02-15T00:56:20.814Z,99.60
2019-02-15T01:01:38.570Z,99.60
2019-02-15T01:07:10.122Z,99.60
2019-02-15T01:12:33.606Z,99.60
2019-02-15T01:17:40.704Z,99.60
2019-02-15T01:22:47.980Z,99.60
2019-02-15T01:28:01.893Z,99.60
2019-02-15T01:33:19.126Z,99.60
2019-02-15T01:38:53.670Z,99.60
2019-02-15T01:44:21.980Z,99.60
2019-02-15T01:49:39.810Z,99.60
2019-02-15T01:54:46.983Z,99.60
2019-02-15T01:59:54.271Z,99.60
2019-02-15T02:05:01.723Z,99.60
2019-02-15T02:10:10.993Z,99.60
2019-02-15T02:15:17.102Z,99.60
2019-02-15T02:20:23.450Z,99.60
2019-02-15T02:25:29.580Z,99.60
2019-02-15T02:30:35.770Z,99.60
2019-02-15T02:35:43.220Z,99.60
2019-02-15T02:40:49.899Z,99.60
2019-02-15T02:45:56.889Z,99.60
2019-02-15T02:51:03.100Z,99.60
2019-02-15T02:56:09.288Z,99.60
2019-02-15T03:01:16.283Z,99.60
2019-02-15T03:06:23.587Z,99.60
2019-02-15T03:11:31.087Z,99.60
2019-02-15T03:16:38.627Z,99.60
2019-02-15T03:21:44.729Z,99.60
2019-02-15T03:26:54.646Z,99.60
2019-02-15T03:32:01.934Z,99.60
2019-02-15T03:37:30.314Z,99.60
2019-02-15T03:42:38.396Z,99.60
2019-02-15T03:47:45.883Z,99.60
2019-02-15T03:52:52.180Z,99.60
2019-02-15T03:57:58.357Z,99.60
2019-02-15T04:03:05.198Z,99.60
2019-02-15T04:08:12.300Z,99.60
2019-02-15T04:13:19.822Z,99.60
2019-02-15T04:18:27.094Z,99.60
2019-02-15T04:23:33.578Z,99.60
2019-02-15T04:28:40.445Z,99.60
2019-02-15T04:33:46.616Z,99.60
2019-02-15T04:38:52.912Z,99.60
2019-02-15T04:43:59.314Z,99.60
2019-02-15T04:49:05.824Z,99.60
2019-02-15T04:54:12.410Z,99.60
2019-02-15T04:59:38.965Z,99.60
2019-02-15T05:04:45.215Z,99.60
2019-02-15T05:09:51.798Z,99.60
2019-02-15T05:14:57.512Z,99.60
2019-02-15T05:20:03.486Z,99.60
2019-02-15T05:25:10.614Z,99.60
2019-02-15T05:30:18.040Z,99.60
2019-02-15T05:35:24.112Z,99.60
2019-02-15T05:40:30.175Z,99.60
2019-02-15T05:45:36.195Z,99.60
2019-02-15T05:50:42.026Z,99.60
2019-02-15T05:55:47.858Z,99.60
2019-02-15T06:00:54.128Z,99.60
2019-02-15T06:06:02.324Z,99.60
2019-02-15T06:11:08.789Z,99.60
2019-02-15T06:16:16.534Z,99.60
2019-02-15T06:21:23.826Z,99.60
2019-02-15T06:26:30.973Z,99.60
2019-02-15T06:31:38.149Z,99.60
2019-02-15T06:36:45.096Z,99.60
2019-02-15T06:41:51.986Z,99.60
2019-02-15T06:46:59.397Z,99.60
2019-02-15T06:52:05.604Z,99.60
2019-02-15T06:57:11.601Z,99.60
2019-02-15T07:02:49.493Z,99.60
2019-02-15T07:07:57.150Z,99.60
2019-02-15T07:13:03.327Z,99.60
2019-02-15T07:18:10.185Z,99.60
2019-02-15T07:23:17.464Z,99.60
2019-02-15T07:28:25.865Z,99.60
2019-02-15T07:33:34.015Z,99.60
2019-02-15T07:38:40.366Z,99.60
2019-02-15T07:43:46.467Z,99.60
2019-02-15T07:48:52.854Z,99.60
2019-02-15T07:53:58.699Z,99.60
2019-02-15T07:59:04.710Z,99.60
2019-02-15T08:04:10.696Z,99.60
2019-02-15T08:09:16.985Z,99.60
2019-02-15T08:14:23.934Z,99.60
2019-02-15T08:19:31.876Z,99.60
2019-02-15T08:24:40.567Z,99.60
2019-02-15T08:29:48.092Z,99.60
2019-02-15T08:34:55.207Z,99.60
2019-02-15T08:40:02.170Z,99.60
2019-02-15T08:45:10.867Z,99.60
2019-02-15T08:50:16.790Z,99.60
2019-02-15T08:55:23.020Z,99.60
2019-02-15T09:00:29.008Z,99.60
2019-02-15T09:05:36.367Z,99.60
2019-02-15T09:10:43.532Z,99.60
2019-02-15T09:15:50.538Z,99.60
2019-02-15T09:20:57.497Z,99.60
2019-02-15T09:26:03.844Z,99.60
2019-02-15T09:31:09.759Z,99.60
2019-02-15T09:36:17.394Z,99.60
2019-02-15T09:41:24.993Z,99.60
2019-02-15T09:46:33.289Z,99.60
2019-02-15T09:51:41.757Z,99.60
2019-02-15T09:57:00.515Z,99.60
2019-02-15T10:02:06.662Z,99.60
2019-02-15T10:07:12.552Z,99.60
2019-02-15T10:12:18.367Z,99.60
2019-02-15T10:17:25.844Z,99.60
2019-02-15T10:22:31.737Z,99.60
2019-02-15T10:27:39.306Z,99.60
2019-02-15T10:32:46.955Z,99.60
2019-02-15T10:37:53.123Z,99.60
2019-02-15T10:42:58.936Z,99.60
2019-02-15T10:48:05.198Z,99.60
2019-02-15T10:53:31.769Z,99.60
2019-02-15T10:58:38.854Z,96.90
2019-02-15T11:03:46.148Z,89.30
2019-02-15T11:08:53.386Z,84.30
2019-02-15T11:14:02.104Z,85.00
2019-02-15T11:19:09.054Z,82.20
2019-02-15T11:24:16.340Z,81.20
2019-02-15T11:29:23.647Z,78.90
2019-02-15T11:34:30.729Z,80.40
2019-02-15T11:39:38.441Z,79.90
2019-02-15T11:44:45.578Z,80.40
2019-02-15T11:49:52.754Z,78.80
2019-02-15T11:54:59.254Z,75.80
2019-02-15T12:00:13.840Z,75.30
2019-02-15T12:05:14.590Z,76.50
2019-02-15T12:10:20.905Z,76.70
2019-02-15T12:15:27.176Z,74.80
2019-02-15T12:20:33.439Z,74.50
2019-02-15T12:25:41.019Z,75.90
2019-02-15T12:30:49.864Z,74.40
2019-02-15T12:35:56.155Z,73.60
2019-02-15T12:41:03.220Z,71.50
2019-02-15T12:46:09.835Z,72.80
2019-02-15T12:51:17.043Z,72.70
2019-02-15T12:56:23.112Z,70.60
2019-02-15T13:01:30.436Z,71.10
2019-02-15T13:06:36.704Z,70.50
2019-02-15T13:11:42.585Z,77.20
2019-02-15T13:16:50.294Z,81.90
2019-02-15T13:21:57.700Z,85.10
2019-02-15T13:27:05.492Z,87.20
2019-02-15T13:32:12.634Z,89.60
2019-02-15T13:37:19.951Z,90.50
2019-02-15T13:42:28.369Z,91.80
2019-02-15T13:47:36.333Z,91.90
2019-02-15T13:52:43.302Z,92.00
2019-02-15T13:57:52.475Z,91.10
2019-02-15T14:02:59.252Z,91.10
2019-02-15T14:08:05.177Z,90.60
2019-02-15T14:13:11.172Z,90.40
2019-02-15T14:18:17.014Z,90.60
2019-02-15T14:23:22.860Z,90.80
2019-02-15T14:28:30.313Z,91.00
2019-02-15T14:33:39.329Z,91.50
2019-02-15T14:38:46.483Z,91.10
2019-02-15T14:43:54.066Z,92.00
2019-02-15T14:49:05.025Z,91.70
2019-02-15T14:54:12.954Z,91.20
2019-02-15T14:59:18.936Z,91.30
2019-02-15T15:04:26.741Z,90.00
2019-02-15T16:06:23.862Z,96.10
2019-02-15T16:11:22.308Z,96.90
2019-02-15T16:16:28.686Z,96.70
2019-02-15T16:21:35.270Z,97.70
2019-02-15T16:26:41.338Z,98.90
2019-02-15T16:31:49.049Z,99.60
2019-02-15T16:37:14.435Z,99.60
2019-02-15T16:42:20.651Z,99.60
2019-02-15T16:47:29.166Z,99.60
2019-02-15T16:52:37.037Z,99.60
2019-02-15T16:57:42.959Z,99.60
2019-02-15T17:02:50.074Z,99.60
2019-02-15T17:07:57.412Z,99.60
2019-02-15T17:13:04.895Z,99.60
2019-02-15T17:18:12.039Z,99.60
2019-02-15T17:23:18.178Z,99.60
2019-02-15T17:28:25.801Z,99.60
2019-02-15T17:33:32.210Z,99.60
2019-02-15T17:38:38.650Z,99.60
2019-02-15T17:43:44.732Z,99.60
2019-02-15T17:49:00.332Z,99.60
2019-02-15T17:54:02.367Z,99.60
2019-02-15T17:59:11.963Z,99.60
2019-02-15T18:04:18.484Z,99.60
2019-02-15T18:09:24.740Z,99.60
2019-02-15T18:14:32.880Z,99.60
2019-02-15T18:19:47.174Z,99.60
2019-02-15T18:24:49.971Z,99.60
2019-02-15T18:29:57.405Z,99.60
2019-02-15T18:35:03.765Z,99.60
2019-02-15T18:40:10.473Z,99.60
2019-02-15T18:45:18.640Z,99.60
2019-02-15T18:50:25.814Z,99.60
2019-02-15T18:55:36.123Z,99.60
2019-02-15T19:00:42.413Z,99.60
2019-02-15T19:05:49.087Z,99.60
2019-02-15T19:10:58.385Z,99.60
2019-02-15T19:16:06.954Z,99.60
2019-02-15T19:21:14.396Z,99.60
2019-02-15T19:26:21.534Z,99.60
2019-02-15T19:31:28.976Z,99.60
2019-02-15T19:36:35.790Z,99.60
2019-02-15T19:41:42.161Z,99.60
2019-02-15T19:46:48.405Z,99.60
2019-02-15T19:51:54.322Z,99.60
2019-02-15T19:57:00.514Z,99.60
2019-02-15T20:02:06.714Z,99.60
2019-02-15T20:07:13.269Z,99.60
2019-02-15T20:12:20.748Z,99.60
2019-02-15T20:17:27.725Z,99.60
2019-02-15T20:22:33.877Z,99.60
2019-02-15T20:27:46.435Z,99.60
2019-02-15T20:32:53.867Z,99.60
2019-02-15T20:38:01.427Z,99.60
2019-02-15T20:43:09.110Z,99.60
2019-02-15T20:48:16.456Z,99.60
2019-02-15T20:53:23.601Z,99.60
2019-02-15T20:58:35.182Z,99.60
2019-02-15T21:03:41.474Z,99.60
2019-02-15T21:08:48.115Z,99.60
2019-02-15T21:13:55.308Z,99.60
2019-02-15T21:19:02.880Z,99.60
2019-02-15T21:24:10.511Z,99.60
2019-02-15T21:29:16.474Z,99.60
2019-02-15T21:34:23.592Z,99.60
2019-02-15T21:39:31.145Z,99.60
2019-02-15T21:44:38.502Z,99.60
2019-02-15T21:49:45.250Z,99.60
2019-02-15T21:54:52.719Z,99.60
2019-02-15T22:00:00.169Z,99.60
2019-02-15T22:05:06.800Z,99.60
2019-02-15T22:10:13.865Z,99.60
2019-02-15T22:15:20.699Z,99.60
2019-02-15T22:20:27.783Z,99.60
2019-02-15T22:25:35.812Z,99.60
2019-02-15T22:30:41.976Z,99.60
2019-02-15T22:35:48.211Z,99.60
2019-02-15T22:41:17.982Z,99.60
2019-02-15T22:46:26.406Z,99.60
2019-02-15T22:51:33.157Z,99.60
2019-02-15T22:56:46.401Z,99.60
2019-02-15T23:01:53.995Z,99.60
2019-02-15T23:07:01.452Z,99.60
2019-02-15T23:12:09.270Z,99.60
2019-02-15T23:17:15.593Z,99.60
2019-02-15T23:22:23.440Z,99.60
2019-02-15T23:27:29.889Z,99.60
2019-02-15T23:32:37.181Z,99.60
2019-02-15T23:37:44.444Z,99.60
2019-02-15T23:42:51.784Z,99.60
2019-02-15T23:47:59.476Z,99.60
2019-02-15T23:53:06.862Z,99.60
2019-02-15T23:58:14.249Z,99.60
